Spruce Hill, Pennsylvania
Current Conditions -  °F | °C
As of 4:15 AM on Monday 22 Dec 2014 (Local Time) from KUNV Reporting Station
Haze Haze  
Wind Chill: 20°   Ceiling: Unl
Heat Index: 20°   Visibility: 5mi
Dew Point: 18°   Wind: 0mph
Humidity: 94%   Direction: NA
Pressure: 30.23"   Gusts: NA
Location:  40.4991°N, 77.4687°W
Report Text: KUNV 220915Z AUTO 00000KT 5SM BR SCT070 SCT095 M07/M08 A3023 RMK AO2 T10681076
Loading
Personal Weather Stations






























Interactive Weather Map New forecast layout! Learn more

10-Day Weather Forecast

Advertisements
Track Severe Weather on mobile